sensor_id;sensor_type;location;lat;lon;timestamp;pressure;altitude;pressure_sealevel;temperature;humidity
69926;BME280;57217;47.286;8.530;2022-07-29T00:09:19;95287.88;;;18.70;74.18
69926;BME280;57217;47.286;8.530;2022-07-29T00:39:22;95285.28;;;18.35;74.43
69926;BME280;57217;47.286;8.530;2022-07-29T01:09:25;95241.16;;;18.40;75.32
69926;BME280;57217;47.286;8.530;2022-07-29T01:39:31;95251.69;;;18.34;80.93
69926;BME280;57217;47.286;8.530;2022-07-29T02:09:35;95241.34;;;18.02;80.68
69926;BME280;57217;47.286;8.530;2022-07-29T02:39:42;95230.28;;;17.69;75.66
69926;BME280;57217;47.286;8.530;2022-07-29T03:09:51;95242.59;;;17.66;74.42
69926;BME280;57217;47.286;8.530;2022-07-29T03:39:56;95274.84;;;17.72;78.08
69926;BME280;57217;47.286;8.530;2022-07-29T04:09:58;95251.81;;;17.87;80.59
69926;BME280;57217;47.286;8.530;2022-07-29T04:40:01;95255.66;;;17.86;80.42
69926;BME280;57217;47.286;8.530;2022-07-29T05:10:04;95254.66;;;17.93;80.99
69926;BME280;57217;47.286;8.530;2022-07-29T05:40:08;95278.25;;;18.07;87.99
69926;BME280;57217;47.286;8.530;2022-07-29T06:10:10;95287.88;;;18.70;81.46
69926;BME280;57217;47.286;8.530;2022-07-29T06:40:13;95376.41;;;18.54;81.19
69926;BME280;57217;47.286;8.530;2022-07-29T07:10:34;95338.25;;;18.06;87.75
69926;BME280;57217;47.286;8.530;2022-07-29T07:40:38;95374.78;;;18.56;86.89
69926;BME280;57217;47.286;8.530;2022-07-29T08:10:40;95362.75;;;18.61;87.63
69926;BME280;57217;47.286;8.530;2022-07-29T08:40:58;95400.16;;;19.17;84.37
69926;BME280;57217;47.286;8.530;2022-07-29T09:11:01;95396.91;;;20.94;79.13
69926;BME280;57217;47.286;8.530;2022-07-29T09:41:04;95394.22;;;22.26;71.75
69926;BME280;57217;47.286;8.530;2022-07-29T10:11:12;95376.13;;;23.74;62.37
69926;BME280;57217;47.286;8.530;2022-07-29T10:41:36;95357.81;;;25.17;62.30
69926;BME280;57217;47.286;8.530;2022-07-29T11:11:42;95357.06;;;25.53;56.33
69926;BME280;57217;47.286;8.530;2022-07-29T11:41:45;95331.31;;;25.69;58.77
69926;BME280;57217;47.286;8.530;2022-07-29T12:11:48;95349.06;;;25.33;53.13
69926;BME280;57217;47.286;8.530;2022-07-29T12:41:54;95390.00;;;24.42;57.08
69926;BME280;57217;47.286;8.530;2022-07-29T13:12:05;95404.47;;;23.49;63.84
69926;BME280;57217;47.286;8.530;2022-07-29T13:42:09;95427.72;;;23.02;68.38
69926;BME280;57217;47.286;8.530;2022-07-29T14:12:11;95489.59;;;20.71;77.83
69926;BME280;57217;47.286;8.530;2022-07-29T14:42:14;95492.63;;;19.44;91.21
69926;BME280;57217;47.286;8.530;2022-07-29T15:12:16;95528.84;;;18.70;92.76
69926;BME280;57217;47.286;8.530;2022-07-29T15:42:19;95528.19;;;18.06;97.68
69926;BME280;57217;47.286;8.530;2022-07-29T16:12:23;95543.13;;;18.54;91.16
69926;BME280;57217;47.286;8.530;2022-07-29T16:42:26;95518.88;;;18.10;90.58
69926;BME280;57217;47.286;8.530;2022-07-29T17:12:28;95506.56;;;18.13;88.76
69926;BME280;57217;47.286;8.530;2022-07-29T17:42:32;95513.19;;;19.03;87.24
69926;BME280;57217;47.286;8.530;2022-07-29T18:12:34;95535.41;;;19.25;83.33
69926;BME280;57217;47.286;8.530;2022-07-29T18:42:36;95549.09;;;18.71;84.40
69926;BME280;57217;47.286;8.530;2022-07-29T19:12:42;95579.88;;;18.03;86.49
69926;BME280;57217;47.286;8.530;2022-07-29T19:42:45;95580.28;;;17.34;92.87
69926;BME280;57217;47.286;8.530;2022-07-29T20:13:14;95590.38;;;16.98;100.00
69926;BME280;57217;47.286;8.530;2022-07-29T20:43:16;95585.97;;;16.91;100.00
69926;BME280;57217;47.286;8.530;2022-07-29T21:13:19;95591.91;;;16.82;100.00
69926;BME280;57217;47.286;8.530;2022-07-29T21:43:22;95586.31;;;16.77;100.00
69926;BME280;57217;47.286;8.530;2022-07-29T22:13:24;95585.88;;;16.95;98.78
69926;BME280;57217;47.286;8.530;2022-07-29T22:43:27;95580.25;;;17.05;98.98
69926;BME280;57217;47.286;8.530;2022-07-29T23:13:30;95576.97;;;17.14;96.61
69926;BME280;57217;47.286;8.530;2022-07-29T23:43:33;95590.00;;;17.12;95.10
